Time;durP1;ratioP1;P1;durP2;ratioP2;P2;SDS_P1;SDS_P2;PMS_P1;PMS_P2;Temp;Humidity;BMP_temperature;BMP_pressure;BME280_temperature;BME280_humidity;BME280_pressure;Samples;Min_cycle;Max_cycle;Signal;HPM_P1;HPM_P2
2024/04/15 00:00:06;;;;;;;6.20;1.90;;;8.30;99.90;;;;;;5514641;25;20735;-62
2024/04/15 00:02:51;;;;;;;9.00;2.00;;;8.30;99.90;;;;;;5510543;25;20016;-62
2024/04/15 00:05:40;;;;;;;10.07;2.40;;;8.30;99.90;;;;;;5527663;25;19997;-62
2024/04/15 00:08:26;;;;;;;8.75;2.65;;;8.30;99.90;;;;;;5521956;25;20001;-62
2024/04/15 00:11:12;;;;;;;8.05;2.40;;;8.20;99.90;;;;;;5497516;25;20009;-62
2024/04/15 00:13:57;;;;;;;13.43;2.80;;;8.30;99.90;;;;;;5525586;25;19996;-63
2024/04/15 00:16:44;;;;;;;8.55;2.70;;;8.30;99.90;;;;;;5513693;25;20011;-62
2024/04/15 00:19:30;;;;;;;5.90;2.80;;;8.20;99.90;;;;;;5511862;25;20758;-63
2024/04/15 00:22:15;;;;;;;6.10;3.33;;;8.20;99.90;;;;;;5515851;25;19997;-63
2024/04/15 00:25:02;;;;;;;13.50;3.00;;;8.20;99.90;;;;;;5489988;25;19998;-62
2024/04/15 00:27:47;;;;;;;7.63;3.47;;;8.20;99.90;;;;;;5514576;25;20002;-62
2024/04/15 00:30:33;;;;;;;5.25;2.80;;;8.20;99.90;;;;;;5503892;25;20013;-62
2024/04/15 00:33:20;;;;;;;8.88;3.63;;;8.20;99.90;;;;;;5480874;25;20004;-62
2024/04/15 00:36:06;;;;;;;10.63;3.08;;;8.20;99.90;;;;;;5481546;25;20569;-62
2024/04/15 00:38:52;;;;;;;12.23;3.87;;;8.10;99.90;;;;;;5493475;25;19997;-62
2024/04/15 00:41:38;;;;;;;12.45;3.72;;;8.10;99.90;;;;;;5487974;25;20010;-62
2024/04/15 00:44:32;;;;;;;8.27;3.60;;;8.10;99.90;;;;;;5507878;25;20507;-62
2024/04/15 00:47:18;;;;;;;9.23;3.13;;;8.10;99.90;;;;;;5504913;25;20002;-62
2024/04/15 00:50:05;;;;;;;9.02;3.53;;;8.00;99.90;;;;;;5522212;25;20463;-62
2024/04/15 00:52:52;;;;;;;5.95;2.88;;;8.10;99.90;;;;;;5502197;25;19997;-62
2024/04/15 00:55:41;;;;;;;15.90;4.25;;;7.90;99.90;;;;;;5501669;25;20455;-62
2024/04/15 00:58:27;;;;;;;11.48;3.47;;;7.90;99.90;;;;;;5499999;25;19994;-62
2024/04/15 01:01:13;;;;;;;10.03;3.13;;;7.90;99.90;;;;;;5507940;25;19997;-62
2024/04/15 01:03:59;;;;;;;8.07;3.67;;;8.00;99.90;;;;;;5496130;25;20006;-62
2024/04/15 01:06:45;;;;;;;10.45;4.22;;;8.00;99.90;;;;;;5493662;25;20073;-62
2024/04/15 01:09:31;;;;;;;5.30;3.00;;;8.00;99.90;;;;;;5481843;25;19995;-62
2024/04/15 01:12:17;;;;;;;9.07;3.40;;;8.00;99.90;;;;;;5492622;26;20413;-62
2024/04/15 01:15:03;;;;;;;8.13;3.25;;;8.00;99.90;;;;;;5489160;25;20016;-62
2024/04/15 01:17:49;;;;;;;7.53;3.45;;;8.00;99.90;;;;;;5480393;25;20009;-62
2024/04/15 01:20:35;;;;;;;10.85;3.53;;;8.00;99.90;;;;;;5494806;25;20012;-62
2024/04/15 01:23:22;;;;;;;8.45;3.25;;;7.90;99.90;;;;;;5502464;25;20073;-62
2024/04/15 01:26:08;;;;;;;7.30;2.95;;;7.80;99.90;;;;;;5507437;25;20016;-62
2024/04/15 01:28:54;;;;;;;9.90;3.47;;;7.80;99.90;;;;;;5490896;25;19990;-62
2024/04/15 01:31:40;;;;;;;8.82;3.33;;;7.80;99.90;;;;;;5470698;25;20010;-62
2024/04/15 01:34:26;;;;;;;6.03;3.00;;;7.80;99.90;;;;;;5447591;26;20009;-62
2024/04/15 01:37:12;;;;;;;10.65;2.88;;;7.80;99.90;;;;;;5450120;26;20006;-63
2024/04/15 01:39:57;;;;;;;8.00;3.00;;;7.80;99.90;;;;;;5453274;26;20017;-61
2024/04/15 01:42:43;;;;;;;10.93;2.83;;;7.80;99.90;;;;;;5445740;26;20043;-62
2024/04/15 01:45:29;;;;;;;8.18;2.85;;;7.70;99.90;;;;;;5451680;26;20467;-62
2024/04/15 01:48:15;;;;;;;6.30;3.17;;;7.70;99.90;;;;;;5455817;26;19998;-62
2024/04/15 01:51:01;;;;;;;8.20;2.73;;;7.70;99.90;;;;;;5451422;26;20007;-63
2024/04/15 01:53:47;;;;;;;8.38;2.67;;;7.60;99.90;;;;;;5444774;26;19999;-62
2024/04/15 01:56:33;;;;;;;7.88;2.78;;;7.60;99.90;;;;;;5454852;26;19999;-63
2024/04/15 01:59:19;;;;;;;11.27;3.78;;;7.70;99.90;;;;;;5459654;26;19994;-62
2024/04/15 02:02:04;;;;;;;7.43;2.50;;;7.60;99.90;;;;;;5446111;26;20570;-62
2024/04/15 02:04:50;;;;;;;4.60;2.40;;;7.60;99.90;;;;;;5448617;26;20071;-63
2024/04/15 02:07:36;;;;;;;7.60;2.88;;;7.60;99.90;;;;;;5464085;26;20002;-62
2024/04/15 02:10:22;;;;;;;8.80;2.90;;;7.60;99.90;;;;;;5467595;26;20006;-63
2024/04/15 02:13:08;;;;;;;8.43;3.20;;;7.60;99.90;;;;;;5444864;26;20089;-63
2024/04/15 02:15:54;;;;;;;8.80;3.38;;;7.60;99.90;;;;;;5461304;26;20010;-63
2024/04/15 02:18:40;;;;;;;8.20;3.60;;;7.60;99.90;;;;;;5472173;26;20496;-63
2024/04/15 02:21:26;;;;;;;8.00;2.90;;;7.50;99.90;;;;;;5456008;26;20002;-63
2024/04/15 02:24:13;;;;;;;11.20;3.33;;;7.50;99.90;;;;;;5450329;26;20091;-63
2024/04/15 02:26:58;;;;;;;;;;;7.50;99.90;;;;;;5459657;26;20479;-63
2024/04/15 02:29:44;;;;;;;7.07;3.33;;;7.60;99.90;;;;;;5465873;26;19923;-63
2024/04/15 02:32:30;;;;;;;5.68;3.60;;;7.60;99.90;;;;;;5451524;26;19999;-63
2024/04/15 02:35:16;;;;;;;8.65;3.85;;;7.50;99.90;;;;;;5462682;26;20023;-63
2024/04/15 02:38:02;;;;;;;10.63;4.25;;;7.50;99.90;;;;;;5455939;26;20068;-63
2024/04/15 02:40:48;;;;;;;7.63;3.97;;;7.50;99.90;;;;;;5449483;26;19991;-63
2024/04/15 02:43:34;;;;;;;7.10;3.88;;;7.50;99.90;;;;;;5457008;26;19999;-63
2024/04/15 02:46:19;;;;;;;6.97;4.43;;;7.50;99.90;;;;;;5445349;26;19998;-63
2024/04/15 02:49:05;;;;;;;9.07;4.07;;;7.60;99.90;;;;;;5448457;26;20022;-63
2024/04/15 02:51:52;;;;;;;7.60;4.10;;;7.60;99.90;;;;;;5453979;26;19991;-63
2024/04/15 02:54:38;;;;;;;13.82;5.22;;;7.60;99.90;;;;;;5467799;26;19990;-63
2024/04/15 02:57:24;;;;;;;10.60;4.43;;;7.50;99.90;;;;;;5459726;26;20467;-63
2024/04/15 03:00:10;;;;;;;10.90;5.25;;;7.50;99.90;;;;;;5461710;26;20001;-63
2024/04/15 03:02:56;;;;;;;6.80;4.63;;;7.50;99.90;;;;;;5460833;26;20014;-63
2024/04/15 03:05:44;;;;;;;9.30;4.72;;;7.50;99.90;;;;;;5458538;26;20006;-63
2024/04/15 03:08:29;;;;;;;7.90;5.13;;;7.50;99.90;;;;;;5449390;26;20023;-63
2024/04/15 03:11:16;;;;;;;12.18;5.53;;;7.50;99.90;;;;;;5444228;26;19994;-62
2024/04/15 03:14:02;;;;;;;10.73;4.90;;;7.50;99.90;;;;;;5452311;26;20026;-62
2024/04/15 03:16:52;;;;;;;9.32;5.43;;;7.50;99.90;;;;;;5453569;26;20009;-62
2024/04/15 03:19:40;;;;;;;7.85;5.13;;;7.40;99.90;;;;;;5471887;26;19994;-62
2024/04/15 03:22:25;;;;;;;11.05;4.88;;;7.40;99.90;;;;;;5443375;26;20029;-62
2024/04/15 03:25:11;;;;;;;9.73;5.15;;;7.40;99.90;;;;;;5469446;26;19998;-62
2024/04/15 03:27:57;;;;;;;19.77;6.03;;;7.40;99.90;;;;;;5455386;26;20062;-62
2024/04/15 03:30:43;;;;;;;12.95;5.40;;;7.40;99.90;;;;;;5448926;26;20002;-62
2024/04/15 03:33:29;;;;;;;15.95;5.18;;;7.40;99.90;;;;;;5455624;26;20014;-62
2024/04/15 03:36:15;;;;;;;17.83;5.55;;;7.50;99.90;;;;;;5468004;26;20006;-62
2024/04/15 03:39:01;;;;;;;11.38;5.80;;;7.50;99.90;;;;;;5465578;26;20042;-62
2024/04/15 03:41:46;;;;;;;8.25;5.05;;;7.50;99.90;;;;;;5456662;26;20006;-62
2024/04/15 03:44:32;;;;;;;11.80;5.78;;;7.50;99.90;;;;;;5458040;26;20519;-62
2024/04/15 03:47:18;;;;;;;9.05;5.50;;;7.60;99.90;;;;;;5455589;26;20047;-62
2024/04/15 03:50:04;;;;;;;8.02;5.35;;;7.50;99.90;;;;;;5452553;26;20017;-62
2024/04/15 03:52:50;;;;;;;8.37;5.73;;;7.60;99.90;;;;;;5456812;26;20200;-62
2024/04/15 03:55:36;;;;;;;10.32;5.95;;;7.60;99.90;;;;;;5469671;26;20350;-62
2024/04/15 03:58:22;;;;;;;9.07;6.00;;;7.60;99.90;;;;;;5451168;26;19999;-62
2024/04/15 04:01:08;;;;;;;10.50;5.70;;;7.60;99.90;;;;;;5460493;26;20509;-62
2024/04/15 04:03:53;;;;;;;7.10;5.13;;;7.60;99.90;;;;;;5462608;26;20449;-62
2024/04/15 04:06:39;;;;;;;7.53;5.70;;;7.60;99.90;;;;;;5462912;26;19995;-62
2024/04/15 04:09:25;;;;;;;11.07;6.45;;;7.60;99.90;;;;;;5462229;26;19998;-62
2024/04/15 04:12:11;;;;;;;8.98;6.50;;;7.60;99.90;;;;;;5444283;26;20486;-62
2024/04/15 04:14:57;;;;;;;10.38;6.97;;;7.60;99.90;;;;;;5454002;26;20003;-62
2024/04/15 04:17:46;;;;;;;10.30;6.10;;;7.60;99.90;;;;;;5453725;26;20010;-62
2024/04/15 04:20:32;;;;;;;10.98;6.15;;;7.60;99.90;;;;;;5459308;26;19999;-62
2024/04/15 04:23:17;;;;;;;11.63;7.97;;;7.60;99.90;;;;;;5450578;26;20021;-62
2024/04/15 04:26:03;;;;;;;14.48;8.00;;;7.60;99.90;;;;;;5451780;26;19999;-62
2024/04/15 04:28:49;;;;;;;16.40;5.73;;;7.60;99.90;;;;;;5466337;26;19994;-62
2024/04/15 04:31:37;;;;;;;11.93;7.05;;;7.60;99.90;;;;;;5448885;26;20225;-62
2024/04/15 04:34:23;;;;;;;13.90;8.18;;;7.60;99.90;;;;;;5467956;26;20016;-62
2024/04/15 04:37:09;;;;;;;14.18;7.82;;;7.60;99.90;;;;;;5454144;26;19998;-62
2024/04/15 04:39:55;;;;;;;14.80;8.23;;;7.50;99.90;;;;;;5461822;26;20010;-62
2024/04/15 04:42:44;;;;;;;10.32;7.85;;;7.50;99.90;;;;;;5463096;26;20448;-62
2024/04/15 04:45:32;;;;;;;10.80;7.13;;;7.50;99.90;;;;;;5456499;26;20083;-62
2024/04/15 04:48:18;;;;;;;16.17;8.65;;;7.50;99.90;;;;;;5458125;26;20064;-62
2024/04/15 04:51:08;;;;;;;13.95;7.18;;;7.50;99.90;;;;;;5454767;26;20083;-62
2024/04/15 04:53:54;;;;;;;12.13;7.32;;;7.50;99.90;;;;;;5457250;26;20006;-62
2024/04/15 04:56:40;;;;;;;17.73;8.00;;;7.50;99.90;;;;;;5463883;26;20003;-62
2024/04/15 04:59:26;;;;;;;10.75;6.85;;;7.50;99.90;;;;;;5461684;26;19998;-62
2024/04/15 05:02:12;;;;;;;16.85;7.93;;;7.50;99.90;;;;;;5446040;26;19995;-62
2024/04/15 05:04:58;;;;;;;16.50;8.20;;;7.50;99.90;;;;;;5474641;26;20098;-62
2024/04/15 05:07:43;;;;;;;15.73;9.65;;;7.50;99.90;;;;;;5466331;26;20061;-62
2024/04/15 05:10:29;;;;;;;17.80;7.53;;;7.50;99.90;;;;;;5459044;26;20451;-62
2024/04/15 05:13:15;;;;;;;13.32;7.63;;;7.40;99.90;;;;;;5455767;26;20033;-62
2024/04/15 05:16:04;;;;;;;14.07;7.97;;;7.40;99.90;;;;;;5462697;26;21017;-62
2024/04/15 05:18:50;;;;;;;15.55;8.52;;;7.50;99.90;;;;;;5457640;26;19994;-62
2024/04/15 05:21:36;;;;;;;16.75;8.23;;;7.50;99.90;;;;;;5451475;26;20009;-62
2024/04/15 05:24:23;;;;;;;19.80;8.90;;;7.60;99.90;;;;;;5465165;26;19998;-62
2024/04/15 05:27:09;;;;;;;19.88;9.10;;;7.60;99.90;;;;;;5450574;26;20012;-62
2024/04/15 05:29:54;;;;;;;21.80;9.70;;;7.70;99.90;;;;;;5452124;26;20009;-63
2024/04/15 05:35:16;;;;;;;14.68;9.48;;;7.80;99.90;;;;;;5435153;21;20019;-65
2024/04/15 05:38:02;;;;;;;14.18;9.38;;;7.80;99.90;;;;;;5284095;26;20010;-64
2024/04/15 05:40:47;;;;;;;23.42;10.70;;;8.00;99.90;;;;;;5296783;27;20020;-64
2024/04/15 05:43:33;;;;;;;16.48;9.48;;;8.40;99.90;;;;;;5290897;27;20001;-65
2024/04/15 05:46:19;;;;;;;21.13;10.10;;;8.90;99.90;;;;;;5288222;27;19999;-64
2024/04/15 05:49:05;;;;;;;19.52;10.40;;;8.90;99.90;;;;;;5292416;27;20402;-65
2024/04/15 05:51:51;;;;;;;19.88;10.38;;;9.20;99.90;;;;;;5296489;27;20010;-65
2024/04/15 05:54:37;;;;;;;16.33;8.98;;;9.30;99.90;;;;;;5282510;27;20011;-65
2024/04/15 05:57:23;;;;;;;24.02;10.23;;;9.40;99.90;;;;;;5281918;27;20017;-66
2024/04/15 06:00:09;;;;;;;15.75;9.52;;;9.50;99.90;;;;;;5357097;26;20344;-65
2024/04/15 06:02:55;;;;;;;13.85;8.63;;;9.20;99.90;;;;;;5371527;26;19992;-65
2024/04/15 06:05:41;;;;;;;17.27;9.35;;;9.10;99.90;;;;;;5364713;26;20008;-67
2024/04/15 06:08:26;;;;;;;15.57;9.77;;;9.20;99.90;;;;;;5365210;26;20050;-65
2024/04/15 06:11:12;;;;;;;15.93;8.93;;;9.40;99.90;;;;;;5369321;26;20008;-66
2024/04/15 06:13:58;;;;;;;15.25;8.05;;;9.90;99.90;;;;;;5365357;26;20056;-67
2024/04/15 06:16:44;;;;;;;13.00;8.48;;;11.40;99.90;;;;;;5367085;26;20045;-67
2024/04/15 06:19:30;;;;;;;13.75;8.18;;;11.20;99.90;;;;;;5359115;26;20345;-66
2024/04/15 06:22:17;;;;;;;12.50;8.20;;;11.00;99.90;;;;;;5363786;26;19996;-67
2024/04/15 06:25:04;;;;;;;15.15;9.30;;;11.20;99.90;;;;;;5365632;26;20010;-66
2024/04/15 06:27:49;;;;;;;14.88;8.50;;;11.40;99.90;;;;;;5364700;26;20070;-66
2024/04/15 06:30:36;;;;;;;14.73;8.25;;;11.30;99.90;;;;;;5332865;26;20012;-66
2024/04/15 06:33:22;;;;;;;19.05;8.82;;;11.60;99.90;;;;;;5359276;26;20015;-66
2024/04/15 06:36:08;;;;;;;10.52;6.80;;;11.60;99.90;;;;;;5356705;26;20000;-66
2024/04/15 06:38:54;;;;;;;14.02;6.15;;;12.70;99.90;;;;;;5362271;26;20855;-66
2024/04/15 06:41:40;;;;;;;16.40;6.70;;;13.70;99.90;;;;;;5361188;26;20008;-66
2024/04/15 06:44:26;;;;;;;11.90;6.13;;;13.90;99.90;;;;;;5357074;26;20094;-66
2024/04/15 06:47:12;;;;;;;13.95;6.85;;;13.10;99.90;;;;;;5366657;26;19996;-66
2024/04/15 06:49:58;;;;;;;9.07;6.28;;;12.30;99.90;;;;;;5360307;26;20376;-66
2024/04/15 06:52:44;;;;;;;11.97;7.03;;;11.70;99.90;;;;;;5364541;26;20559;-65
2024/04/15 06:55:30;;;;;;;15.40;7.80;;;11.40;99.90;;;;;;5325923;26;19996;-65
2024/04/15 06:58:15;;;;;;;13.85;7.47;;;11.10;99.90;;;;;;5365957;26;20004;-65
2024/04/15 07:01:01;;;;;;;16.85;6.80;;;11.20;99.90;;;;;;5358780;26;20032;-67
2024/04/15 07:03:47;;;;;;;16.50;7.55;;;11.00;99.90;;;;;;5360099;26;20011;-65
2024/04/15 07:06:33;;;;;;;12.30;7.47;;;10.90;99.90;;;;;;5365711;26;20078;-65
2024/04/15 07:09:19;;;;;;;12.10;8.18;;;10.80;99.90;;;;;;5364063;26;19996;-65
2024/04/15 07:12:05;;;;;;;12.32;6.60;;;10.60;99.90;;;;;;5358946;26;20069;-65
2024/04/15 07:14:51;;;;;;;7.60;6.07;;;10.70;99.90;;;;;;5355608;26;20460;-65
2024/04/15 07:17:38;;;;;;;14.27;6.35;;;10.80;99.90;;;;;;5363337;26;20832;-67
2024/04/15 07:20:24;;;;;;;7.20;5.72;;;10.70;99.90;;;;;;5359269;26;20011;-67
2024/04/15 07:23:10;;;;;;;16.57;6.70;;;10.70;99.90;;;;;;5357867;26;20039;-67
2024/04/15 07:26:01;;;;;;;11.43;5.30;;;10.60;99.90;;;;;;5360391;26;20000;-67
2024/04/15 07:28:47;;;;;;;11.75;5.78;;;10.60;99.90;;;;;;5362597;26;20004;-67
2024/04/15 07:31:33;;;;;;;13.75;5.93;;;10.60;99.90;;;;;;5366252;26;20005;-65
2024/04/15 07:34:20;;;;;;;12.70;5.28;;;10.40;99.90;;;;;;5365558;26;20780;-66
2024/04/15 07:37:07;;;;;;;9.88;5.38;;;10.10;99.90;;;;;;5365664;26;20004;-67
2024/04/15 07:39:52;;;;;;;;;;;9.80;99.90;;;;;;5365888;26;20695;-67
2024/04/15 07:42:41;;;;;;;12.85;6.00;;;9.60;99.90;;;;;;5362490;26;19930;-66
2024/04/15 07:45:27;;;;;;;9.48;5.57;;;9.50;99.90;;;;;;5364272;26;20512;-66
2024/04/15 07:48:14;;;;;;;9.55;5.03;;;9.60;99.90;;;;;;5365914;26;20000;-66
2024/04/15 07:51:00;;;;;;;10.48;5.05;;;9.70;99.90;;;;;;5365827;26;20000;-66
2024/04/15 07:53:46;;;;;;;11.52;4.90;;;9.80;99.90;;;;;;5358600;26;21846;-66
2024/04/15 07:56:32;;;;;;;9.70;4.80;;;10.00;99.90;;;;;;5361640;26;20016;-66
2024/04/15 07:59:18;;;;;;;12.27;4.82;;;10.00;99.90;;;;;;5365064;26;20008;-66
2024/04/15 08:02:04;;;;;;;9.93;5.00;;;10.10;99.90;;;;;;5363050;26;20004;-66
2024/04/15 08:04:49;;;;;;;15.93;4.68;;;10.30;99.90;;;;;;5361032;26;20007;-66
2024/04/15 08:07:36;;;;;;;6.75;3.55;;;10.60;99.90;;;;;;5347738;26;20004;-66
2024/04/15 08:10:22;;;;;;;8.77;4.45;;;11.20;99.90;;;;;;5366349;26;20069;-66
2024/04/15 08:13:07;;;;;;;12.63;4.10;;;11.60;99.90;;;;;;5365770;26;19996;-66
2024/04/15 08:15:53;;;;;;;12.65;4.07;;;11.60;99.90;;;;;;5365857;26;19996;-66
2024/04/15 08:18:39;;;;;;;10.10;4.10;;;11.50;99.90;;;;;;5364246;26;19991;-66
2024/04/15 08:21:25;;;;;;;11.57;4.15;;;11.00;99.90;;;;;;5365142;26;20563;-66
2024/04/15 08:24:11;;;;;;;12.02;4.45;;;10.60;99.90;;;;;;5365122;26;20016;-66
2024/04/15 08:26:56;;;;;;;6.40;3.83;;;10.20;99.90;;;;;;5364775;26;19996;-66
2024/04/15 08:29:43;;;;;;;12.80;4.15;;;10.80;99.90;;;;;;5360011;26;20073;-66
2024/04/15 08:32:29;;;;;;;12.63;4.20;;;11.90;99.90;;;;;;5364560;26;20684;-66
2024/04/15 08:35:15;;;;;;;12.35;4.63;;;12.90;99.90;;;;;;5334885;26;20000;-65
2024/04/15 08:38:01;;;;;;;13.73;4.88;;;13.80;99.90;;;;;;5359679;26;20676;-65
2024/04/15 08:40:55;;;;;;;9.60;4.60;;;14.00;99.90;;;;;;5367886;26;20024;-65
2024/04/15 08:43:42;;;;;;;12.85;5.85;;;13.20;99.90;;;;;;5363832;26;20001;-65
2024/04/15 08:46:28;;;;;;;;;;;12.20;99.90;;;;;;5363485;26;20409;-65
2024/04/15 08:49:14;;;;;;;11.93;5.63;;;11.70;99.90;;;;;;5363300;26;20319;-64
2024/04/15 08:52:04;;;;;;;11.90;6.28;;;11.30;99.90;;;;;;5363995;26;20029;-65
2024/04/15 08:54:50;;;;;;;13.95;6.43;;;11.00;99.90;;;;;;5365011;26;20015;-66
2024/04/15 08:57:37;;;;;;;14.02;5.68;;;10.80;99.90;;;;;;5369816;26;20008;-65
2024/04/15 09:00:24;;;;;;;12.35;5.78;;;10.70;99.90;;;;;;5339581;26;19992;-65
2024/04/15 09:03:10;;;;;;;13.03;5.73;;;10.60;99.90;;;;;;5366462;26;20012;-65
2024/04/15 09:05:56;;;;;;;13.07;5.38;;;10.60;99.90;;;;;;5364879;26;20297;-66
2024/04/15 09:08:43;;;;;;;13.43;5.25;;;11.00;99.90;;;;;;5358015;26;20004;-66
2024/04/15 09:11:36;;;;;;;10.38;4.60;;;11.20;99.90;;;;;;5368517;26;20015;-66
2024/04/15 09:14:21;;;;;;;15.02;3.83;;;11.20;99.90;;;;;;5365018;26;20022;-67
2024/04/15 09:17:11;;;;;;;7.93;3.33;;;11.20;99.90;;;;;;5367901;26;20011;-66
2024/04/15 09:19:57;;;;;;;8.68;3.55;;;11.40;99.90;;;;;;5363070;26;20664;-66
2024/04/15 09:22:44;;;;;;;8.88;3.75;;;11.60;99.90;;;;;;5362453;26;20614;-67
2024/04/15 09:25:32;;;;;;;15.00;3.80;;;11.70;99.90;;;;;;5363183;26;20028;-66
2024/04/15 09:28:18;;;;;;;12.85;3.88;;;11.50;99.90;;;;;;5340951;26;20011;-66
2024/04/15 09:31:04;;;;;;;9.52;2.92;;;11.90;99.90;;;;;;5362361;26;20081;-66
2024/04/15 09:33:50;;;;;;;10.98;3.05;;;12.10;99.90;;;;;;5363910;26;20028;-66
2024/04/15 09:36:41;;;;;;;11.68;3.42;;;12.10;99.90;;;;;;5368527;26;20032;-66
2024/04/15 09:39:27;;;;;;;7.70;2.50;;;12.20;99.90;;;;;;5354998;26;20004;-66
2024/04/15 09:42:15;;;;;;;9.35;2.85;;;12.40;99.90;;;;;;5366491;26;20003;-66
2024/04/15 09:45:01;;;;;;;7.78;3.13;;;12.70;99.70;;;;;;5358197;26;20021;-66
2024/04/15 09:47:50;;;;;;;8.65;2.97;;;12.70;99.50;;;;;;5369688;26;20031;-66
2024/04/15 09:50:38;;;;;;;10.13;2.80;;;12.60;99.90;;;;;;5363046;26;19996;-66
2024/04/15 09:53:42;;;;;;;6.40;2.75;;;12.40;99.90;;;;;;5363137;26;20011;-66
2024/04/15 09:56:29;;;;;;;7.93;2.88;;;12.20;99.90;;;;;;5339263;26;20051;-66
2024/04/15 09:59:15;;;;;;;9.93;2.83;;;12.20;99.90;;;;;;5338867;26;20001;-66
2024/04/15 10:02:04;;;;;;;10.05;2.65;;;12.40;99.90;;;;;;5359690;26;20000;-67
2024/04/15 10:04:56;;;;;;;14.73;3.20;;;12.60;99.90;;;;;;5333380;26;20000;-67
2024/04/15 10:07:49;;;;;;;10.93;3.33;;;12.60;99.90;;;;;;5328715;26;19997;-64
2024/04/15 10:10:37;;;;;;;12.85;3.28;;;12.50;99.90;;;;;;5356358;26;20003;-66
2024/04/15 10:13:24;;;;;;;7.97;2.38;;;12.30;99.90;;;;;;5365649;26;20310;-64
2024/04/15 10:16:19;;;;;;;6.90;2.33;;;12.30;99.90;;;;;;5363814;26;20011;-66
2024/04/15 10:19:05;;;;;;;11.02;3.20;;;12.70;99.90;;;;;;5363986;26;20353;-67
2024/04/15 10:21:51;;;;;;;11.18;3.10;;;12.80;99.50;;;;;;5352746;26;20448;-67
2024/04/15 10:24:39;;;;;;;7.82;2.17;;;12.70;99.90;;;;;;5355029;26;19997;-67
2024/04/15 10:27:24;;;;;;;9.55;2.95;;;12.60;99.90;;;;;;5363731;26;20012;-67
2024/04/15 10:30:16;;;;;;;9.68;2.22;;;12.30;99.90;;;;;;5359503;26;20012;-67
2024/04/15 10:33:05;;;;;;;4.43;2.20;;;12.40;99.90;;;;;;5341783;26;20011;-67
2024/04/15 10:35:52;;;;;;;7.25;1.92;;;12.20;99.90;;;;;;5361540;26;19996;-67
2024/04/15 10:38:48;;;;;;;6.55;1.88;;;12.30;99.90;;;;;;5363414;26;20048;-67
2024/04/15 10:41:34;;;;;;;8.07;2.22;;;12.50;99.90;;;;;;5363156;26;20063;-67
2024/04/15 10:44:20;;;;;;;7.70;2.10;;;12.70;99.90;;;;;;5358433;26;20004;-67
2024/04/15 10:47:06;;;;;;;4.90;1.88;;;13.00;99.50;;;;;;5366112;26;20429;-67
2024/04/15 10:49:52;;;;;;;6.47;2.13;;;12.60;97.70;;;;;;5365289;26;20035;-67
2024/04/15 10:52:38;;;;;;;7.93;1.70;;;12.60;99.10;;;;;;5366642;26;20473;-67
2024/04/15 10:55:24;;;;;;;10.15;1.58;;;13.10;99.90;;;;;;5362254;26;20009;-67
2024/04/15 10:58:11;;;;;;;9.00;1.70;;;13.20;99.50;;;;;;5364248;26;20027;-67
2024/04/15 11:00:57;;;;;;;10.50;1.80;;;13.20;99.90;;;;;;5370582;26;20730;-67
2024/04/15 11:03:46;;;;;;;11.65;1.75;;;13.10;99.90;;;;;;5363116;26;20004;-67
2024/04/15 11:06:34;;;;;;;4.47;1.52;;;13.00;99.80;;;;;;5365111;26;20000;-67
2024/04/15 11:09:20;;;;;;;6.72;1.50;;;13.00;98.50;;;;;;5365120;26;20015;-67
2024/04/15 11:12:06;;;;;;;6.43;1.52;;;13.10;95.10;;;;;;5361427;26;20085;-67
2024/04/15 11:14:54;;;;;;;6.03;1.40;;;13.10;96.10;;;;;;5362829;26;20148;-67
2024/04/15 11:17:54;;;;;;;9.07;2.22;;;13.10;94.40;;;;;;5369056;26;20052;-67
2024/04/15 11:20:40;;;;;;;10.90;1.75;;;13.30;95.20;;;;;;5365661;26;20055;-67
2024/04/15 11:23:26;;;;;;;7.10;1.40;;;13.20;94.00;;;;;;5362281;26;20007;-67
2024/04/15 11:26:14;;;;;;;8.57;2.17;;;13.20;95.60;;;;;;5361877;26;20005;-67
2024/04/15 11:29:00;;;;;;;7.70;1.80;;;13.10;95.20;;;;;;5364765;26;20008;-67
2024/04/15 11:31:46;;;;;;;6.35;1.70;;;12.90;94.40;;;;;;5366434;26;20371;-67
2024/04/15 11:34:33;;;;;;;5.47;1.20;;;12.70;95.70;;;;;;5348900;26;20031;-67
2024/04/15 11:37:19;;;;;;;;;;;12.80;96.70;;;;;;5366566;26;20399;-67
2024/04/15 11:40:08;;;;;;;6.93;1.50;;;12.80;95.00;;;;;;5363647;26;19926;-67
2024/04/15 11:42:57;;;;;;;13.05;1.35;;;12.80;95.10;;;;;;5357154;26;20019;-67
2024/04/15 11:45:52;;;;;;;7.60;1.55;;;12.80;95.90;;;;;;5334916;26;20016;-67
2024/04/15 11:48:37;;;;;;;6.40;1.48;;;13.00;97.00;;;;;;5340476;26;20154;-67
2024/04/15 11:51:24;;;;;;;5.60;1.55;;;13.00;95.00;;;;;;5358796;26;19996;-67
2024/04/15 11:54:10;;;;;;;5.40;1.07;;;13.20;96.10;;;;;;5356611;26;20619;-67
2024/04/15 11:56:55;;;;;;;7.07;1.13;;;13.00;95.10;;;;;;5365007;26;20007;-66
2024/04/15 11:59:41;;;;;;;6.43;1.63;;;13.30;96.30;;;;;;5359623;26;20345;-65
2024/04/15 12:02:27;;;;;;;9.93;1.40;;;13.30;95.50;;;;;;5355169;26;20008;-66
2024/04/15 12:05:13;;;;;;;10.00;1.52;;;13.00;92.50;;;;;;5355779;26;20004;-66
2024/04/15 12:08:00;;;;;;;4.15;1.30;;;12.80;94.10;;;;;;5362526;26;20407;-66
2024/04/15 12:10:46;;;;;;;4.32;1.30;;;12.60;93.60;;;;;;5339731;26;20000;-66
2024/04/15 12:13:32;;;;;;;4.40;1.02;;;12.50;94.20;;;;;;5358558;26;20036;-66
2024/04/15 12:16:18;;;;;;;7.32;1.00;;;12.60;95.10;;;;;;5366374;26;20000;-66
2024/04/15 12:19:03;;;;;;;4.88;1.02;;;12.70;93.20;;;;;;5366307;26;20008;-67
2024/04/15 12:21:49;;;;;;;3.60;1.13;;;12.50;92.30;;;;;;5348821;26;20074;-66
2024/04/15 12:24:38;;;;;;;5.75;1.40;;;12.50;94.10;;;;;;5365384;26;19992;-66
2024/04/15 12:27:23;;;;;;;6.88;1.33;;;12.70;93.60;;;;;;5365508;26;20015;-66
2024/04/15 12:30:11;;;;;;;12.75;1.40;;;12.70;94.20;;;;;;5366773;26;20035;-66
2024/04/15 12:32:58;;;;;;;6.53;1.30;;;12.80;93.50;;;;;;5365620;26;20067;-66
2024/04/15 12:35:45;;;;;;;4.60;1.10;;;12.90;93.60;;;;;;5341877;26;20553;-66
2024/04/15 12:38:31;;;;;;;4.75;1.33;;;13.00;93.50;;;;;;5358399;26;20383;-66
2024/04/15 12:41:17;;;;;;;6.60;1.73;;;13.10;92.00;;;;;;5365214;26;20019;-66
2024/04/15 12:44:03;;;;;;;4.88;1.13;;;13.10;93.40;;;;;;5364733;26;20419;-66
2024/04/15 12:46:49;;;;;;;7.80;2.10;;;13.40;94.40;;;;;;5363488;26;20761;-66
2024/04/15 12:49:35;;;;;;;6.97;1.15;;;13.50;92.50;;;;;;5365367;26;20059;-66
2024/04/15 12:52:21;;;;;;;4.57;1.08;;;13.50;93.20;;;;;;5363960;26;20042;-66
2024/04/15 12:55:07;;;;;;;12.82;1.42;;;13.50;92.30;;;;;;5360732;26;20051;-66
2024/04/15 12:57:53;;;;;;;8.43;1.33;;;13.40;92.80;;;;;;5367050;26;20089;-67
2024/04/15 13:00:43;;;;;;;5.85;1.10;;;13.40;91.10;;;;;;5353828;26;19997;-66
2024/04/15 13:03:28;;;;;;;12.15;1.80;;;13.40;91.30;;;;;;5354389;26;20526;-66
2024/04/15 13:06:14;;;;;;;6.60;0.85;;;13.40;92.80;;;;;;5361426;26;20309;-66
2024/04/15 13:09:00;;;;;;;6.70;1.65;;;13.40;91.80;;;;;;5363079;26;20004;-66
2024/04/15 13:11:46;;;;;;;8.10;1.85;;;13.50;92.90;;;;;;5364116;26;20070;-66
2024/04/15 13:14:32;;;;;;;5.72;1.30;;;13.50;91.70;;;;;;5358424;26;20011;-66
2024/04/15 13:17:18;;;;;;;5.38;0.95;;;13.20;93.00;;;;;;5366681;26;20066;-66
2024/04/15 13:20:06;;;;;;;4.78;0.80;;;13.20;92.20;;;;;;5363900;26;20927;-66
2024/04/15 13:22:54;;;;;;;5.90;0.85;;;13.10;91.10;;;;;;5366251;26;20057;-66
2024/04/15 13:25:40;;;;;;;8.75;1.45;;;13.20;91.60;;;;;;5363191;26;19996;-66
2024/04/15 13:28:26;;;;;;;5.22;1.52;;;13.30;90.20;;;;;;5366394;26;20551;-66
2024/04/15 13:31:12;;;;;;;71.40;2.53;;;13.40;90.50;;;;;;5366351;26;20024;-66
2024/04/15 13:33:58;;;;;;;4.45;1.00;;;13.30;90.00;;;;;;5366608;26;20000;-66
2024/04/15 13:36:44;;;;;;;5.63;1.00;;;12.90;90.00;;;;;;5366281;26;20032;-66
2024/04/15 13:39:30;;;;;;;3.35;0.80;;;12.90;90.00;;;;;;5356323;26;19992;-66
2024/04/15 13:42:16;;;;;;;7.75;1.73;;;12.90;90.10;;;;;;5360591;26;20656;-66
2024/04/15 13:45:02;;;;;;;3.45;1.00;;;13.00;90.00;;;;;;5362706;26;20022;-66
2024/04/15 13:47:48;;;;;;;7.70;1.17;;;13.20;87.50;;;;;;5362959;26;20090;-66
2024/04/15 13:50:34;;;;;;;5.72;0.95;;;13.00;87.10;;;;;;5359749;26;20069;-66
2024/04/15 13:53:20;;;;;;;5.70;1.33;;;13.10;89.80;;;;;;5362218;26;20691;-66
2024/04/15 13:56:06;;;;;;;5.40;1.13;;;13.30;87.10;;;;;;5363879;26;20008;-66
2024/04/15 13:58:53;;;;;;;17.05;1.63;;;13.10;88.10;;;;;;5366489;26;20014;-66
2024/04/15 14:01:39;;;;;;;4.57;1.40;;;12.70;88.00;;;;;;5342722;26;20286;-66
2024/04/15 14:04:25;;;;;;;6.15;1.23;;;12.50;89.30;;;;;;5360589;26;20011;-66
2024/04/15 14:07:11;;;;;;;4.90;1.20;;;12.60;90.00;;;;;;5363440;26;20007;-66
2024/04/15 14:09:57;;;;;;;9.27;1.70;;;12.50;88.50;;;;;;5365694;26;21055;-66
2024/04/15 14:12:43;;;;;;;6.80;0.93;;;12.50;88.80;;;;;;5363601;26;20555;-66
2024/04/15 14:15:29;;;;;;;4.80;1.17;;;12.40;88.30;;;;;;5362768;26;20501;-66
2024/04/15 14:18:14;;;;;;;15.68;0.93;;;12.20;88.60;;;;;;5364144;26;20007;-66
2024/04/15 14:21:03;;;;;;;6.18;1.15;;;12.10;88.40;;;;;;5340180;26;20008;-66
2024/04/15 14:23:49;;;;;;;5.03;0.85;;;12.00;88.60;;;;;;5358560;26;20012;-66
2024/04/15 14:26:37;;;;;;;1.77;0.60;;;11.90;88.40;;;;;;5363915;26;20419;-66
2024/04/15 14:29:23;;;;;;;3.55;1.05;;;11.70;89.90;;;;;;5359698;26;20019;-66